Time;durP1;ratioP1;P1;durP2;ratioP2;P2;SDS_P1;SDS_P2;PMS_P1;PMS_P2;Temp;Humidity;BMP_temperature;BMP_pressure;BME280_temperature;BME280_humidity;BME280_pressure;Samples;Min_cycle;Max_cycle;Signal;HPM_P1;HPM_P2
2021/06/18 00:02:07;;;;;;;12.30;6.70;;;25.50;69.50;;;;;;5078998;28;20048;-76
2021/06/18 00:04:32;;;;;;;11.43;6.00;;;25.50;69.40;;;;;;5110582;28;20047;-76
2021/06/18 00:06:58;;;;;;;10.05;6.38;;;25.50;69.50;;;;;;5088127;28;20034;-76
2021/06/18 00:09:24;;;;;;;11.25;6.43;;;25.40;69.50;;;;;;5107729;28;20369;-75
2021/06/18 00:11:49;;;;;;;11.75;6.72;;;25.40;69.70;;;;;;5116220;28;20499;-75
2021/06/18 00:14:15;;;;;;;12.02;6.75;;;25.40;69.70;;;;;;5095465;28;20530;-76
2021/06/18 00:16:40;;;;;;;12.32;6.68;;;25.30;69.90;;;;;;5081073;28;20100;-75
2021/06/18 00:19:06;;;;;;;12.20;7.07;;;25.20;69.90;;;;;;5083482;28;20028;-76
2021/06/18 00:21:32;;;;;;;13.43;6.32;;;25.20;70.00;;;;;;5078990;28;20395;-76
2021/06/18 00:23:57;;;;;;;11.70;6.53;;;25.10;70.10;;;;;;5077529;28;20035;-75
2021/06/18 00:26:23;;;;;;;15.98;6.70;;;25.10;70.00;;;;;;5099957;28;20031;-75
2021/06/18 00:28:50;;;;;;;14.73;7.10;;;25.00;70.00;;;;;;5115362;28;20027;-75
2021/06/18 00:31:16;;;;;;;12.40;6.38;;;25.00;70.00;;;;;;5095620;28;20047;-75
2021/06/18 00:33:41;;;;;;;9.77;6.82;;;25.00;70.10;;;;;;5097213;28;20059;-76
2021/06/18 00:36:07;;;;;;;18.55;7.03;;;24.90;69.70;;;;;;5093791;28;20043;-75
2021/06/18 00:38:33;;;;;;;11.93;6.05;;;24.90;69.70;;;;;;5087765;28;20077;-75
2021/06/18 00:40:58;;;;;;;10.52;6.35;;;24.80;69.80;;;;;;5096274;28;20488;-75
2021/06/18 00:43:24;;;;;;;10.68;6.10;;;24.80;69.90;;;;;;5115354;28;20041;-75
2021/06/18 00:45:50;;;;;;;12.77;5.97;;;24.80;69.70;;;;;;5096565;28;20030;-76
2021/06/18 00:48:20;;;;;;;9.60;6.03;;;24.70;69.70;;;;;;5115413;28;20034;-75
2021/06/18 00:50:46;;;;;;;10.40;5.30;;;24.70;69.90;;;;;;5114653;28;20038;-75
2021/06/18 00:53:12;;;;;;;9.18;6.60;;;24.70;69.90;;;;;;5106328;28;20111;-75
2021/06/18 00:55:38;;;;;;;11.50;6.35;;;24.70;70.10;;;;;;5091966;28;20047;-75
2021/06/18 00:58:03;;;;;;;10.30;5.90;;;24.60;70.00;;;;;;5077065;28;20025;-75
2021/06/18 01:00:29;;;;;;;9.30;5.88;;;24.60;70.00;;;;;;5094970;28;20081;-75
2021/06/18 01:02:55;;;;;;;10.20;5.30;;;24.60;70.00;;;;;;5106756;28;20086;-75
2021/06/18 01:05:22;;;;;;;9.40;5.50;;;24.60;70.20;;;;;;5079594;28;20383;-75
2021/06/18 01:07:50;;;;;;;11.20;5.88;;;24.50;70.10;;;;;;5094924;28;20049;-75
2021/06/18 01:10:34;;;;;;;;;;;24.50;70.10;;;;;;5082522;28;20032;-75
2021/06/18 01:13:09;;;;;;;9.20;5.20;;;24.50;69.90;;;;;;5088205;28;19911;-75
2021/06/18 01:16:09;;;;;;;12.32;5.95;;;24.50;70.20;;;;;;5112011;28;20024;-75
2021/06/18 01:18:59;;;;;;;8.10;5.35;;;24.50;70.10;;;;;;5094383;28;20024;-75
2021/06/18 01:21:32;;;;;;;10.30;5.80;;;24.50;70.30;;;;;;5086642;28;20044;-75
2021/06/18 01:24:03;;;;;;;9.32;5.82;;;24.40;70.40;;;;;;5114624;28;20027;-75
2021/06/18 01:26:59;;;;;;;10.63;6.07;;;24.40;70.50;;;;;;5114539;28;20028;-75
2021/06/18 01:29:26;;;;;;;10.27;5.88;;;24.30;70.60;;;;;;5094196;28;20077;-75
2021/06/18 01:31:52;;;;;;;10.35;5.68;;;24.30;70.80;;;;;;5094446;28;20480;-75
2021/06/18 01:34:27;;;;;;;9.35;5.78;;;24.30;70.70;;;;;;5094425;28;20031;-75
2021/06/18 01:36:56;;;;;;;11.70;6.45;;;24.30;70.80;;;;;;5095330;28;20048;-75
2021/06/18 01:39:24;;;;;;;12.15;6.50;;;24.30;70.90;;;;;;5113580;28;20027;-76
2021/06/18 01:41:51;;;;;;;9.98;5.40;;;24.20;70.80;;;;;;5114710;28;20023;-75
2021/06/18 01:44:20;;;;;;;8.33;5.43;;;24.20;70.90;;;;;;5113190;28;20039;-75
2021/06/18 01:46:46;;;;;;;;;;;24.20;71.00;;;;;;5096280;28;20392;-75
2021/06/18 01:49:13;;;;;;;6.10;5.25;;;24.20;70.80;;;;;;5113099;28;19908;-75
2021/06/18 01:51:41;;;;;;;11.65;5.38;;;24.20;71.10;;;;;;5097385;28;20059;-75
2021/06/18 01:54:08;;;;;;;9.98;5.50;;;24.20;71.10;;;;;;5096719;28;20031;-75
2021/06/18 01:56:36;;;;;;;8.00;5.53;;;24.20;71.00;;;;;;5096203;28;20052;-75
2021/06/18 01:59:04;;;;;;;9.82;5.05;;;24.20;71.10;;;;;;5111677;28;20042;-75
2021/06/18 02:01:39;;;;;;;10.63;5.82;;;24.20;71.00;;;;;;5094970;28;20029;-75
2021/06/18 02:04:06;;;;;;;11.27;5.90;;;24.20;71.20;;;;;;5095081;28;20102;-76
2021/06/18 02:06:35;;;;;;;11.07;6.07;;;24.20;71.40;;;;;;5075763;28;20039;-75
2021/06/18 02:09:03;;;;;;;6.55;5.22;;;24.10;71.60;;;;;;5068017;28;20038;-75
2021/06/18 02:11:31;;;;;;;8.43;5.63;;;24.00;71.60;;;;;;5110200;28;20399;-75
2021/06/18 02:13:58;;;;;;;15.35;5.95;;;24.00;71.80;;;;;;5113244;28;20050;-76
2021/06/18 02:16:29;;;;;;;9.35;5.43;;;24.00;72.00;;;;;;5077283;28;20084;-75
2021/06/18 02:18:57;;;;;;;9.40;5.82;;;24.00;71.90;;;;;;5113375;28;20069;-75
2021/06/18 02:21:25;;;;;;;9.65;5.32;;;24.10;72.10;;;;;;5078725;28;20396;-75
2021/06/18 02:23:57;;;;;;;10.47;5.30;;;24.10;72.00;;;;;;5112512;28;20057;-75
2021/06/18 02:26:25;;;;;;;10.60;5.53;;;24.10;71.80;;;;;;5113656;28;20049;-75
2021/06/18 02:28:53;;;;;;;11.07;5.43;;;24.20;71.70;;;;;;5112732;28;20068;-76
2021/06/18 02:31:21;;;;;;;11.80;5.30;;;24.20;71.50;;;;;;5093247;28;20047;-75
2021/06/18 02:33:48;;;;;;;8.98;5.50;;;24.20;71.50;;;;;;5076180;28;20063;-75
2021/06/18 02:36:15;;;;;;;10.20;5.60;;;24.20;71.30;;;;;;5113626;28;20020;-75
2021/06/18 02:38:41;;;;;;;9.43;5.60;;;24.20;71.30;;;;;;5113736;28;20113;-75
2021/06/18 02:41:07;;;;;;;13.02;5.05;;;24.20;71.30;;;;;;5058573;28;20056;-75
2021/06/18 02:43:32;;;;;;;7.05;5.90;;;24.20;71.40;;;;;;5093270;28;20040;-76
2021/06/18 02:45:58;;;;;;;11.85;6.10;;;24.10;71.40;;;;;;5110905;28;20035;-75
2021/06/18 02:48:39;;;;;;;8.85;5.20;;;24.00;71.40;;;;;;5095431;28;20434;-75
2021/06/18 02:51:17;;;;;;;9.77;5.45;;;24.00;71.50;;;;;;5076873;28;20455;-75
2021/06/18 02:53:57;;;;;;;8.70;5.35;;;24.00;71.60;;;;;;5074847;28;20031;-76
2021/06/18 02:56:44;;;;;;;7.18;5.20;;;24.00;71.50;;;;;;5074866;28;20115;-76
2021/06/18 02:59:27;;;;;;;9.05;5.28;;;24.00;71.50;;;;;;5093599;28;20016;-75
2021/06/18 03:01:56;;;;;;;7.85;5.22;;;24.00;71.60;;;;;;5097169;28;20063;-75
2021/06/18 03:04:25;;;;;;;10.75;5.40;;;24.00;71.60;;;;;;5082605;28;20027;-75
2021/06/18 03:06:54;;;;;;;6.88;5.40;;;24.00;71.50;;;;;;5109228;28;20489;-75
2021/06/18 03:09:26;;;;;;;16.88;5.53;;;24.00;71.50;;;;;;5096512;28;20122;-75
2021/06/18 03:11:54;;;;;;;8.13;3.90;;;24.00;71.60;;;;;;5088594;28;20397;-75
2021/06/18 03:14:23;;;;;;;6.45;4.43;;;24.00;71.80;;;;;;5103661;28;20047;-75
2021/06/18 03:16:50;;;;;;;9.02;4.63;;;24.00;72.00;;;;;;5086560;28;20418;-75
2021/06/18 03:19:19;;;;;;;7.55;5.13;;;24.00;72.10;;;;;;5091324;28;20050;-75
2021/06/18 03:21:46;;;;;;;9.40;4.80;;;24.00;72.50;;;;;;5113593;28;20028;-75
2021/06/18 03:24:13;;;;;;;10.80;4.85;;;24.00;72.60;;;;;;5106305;28;20042;-75
2021/06/18 03:26:40;;;;;;;6.88;5.05;;;24.00;72.30;;;;;;5098683;28;20035;-75
2021/06/18 03:29:07;;;;;;;8.00;4.78;;;24.00;72.10;;;;;;5110250;28;20034;-75
2021/06/18 03:31:35;;;;;;;8.87;5.20;;;24.00;71.80;;;;;;5081915;28;20142;-75
2021/06/18 03:34:02;;;;;;;7.13;5.13;;;24.00;71.70;;;;;;5116532;28;20027;-75
2021/06/18 03:36:28;;;;;;;9.50;4.65;;;24.00;71.60;;;;;;5098824;28;20031;-76
2021/06/18 03:38:55;;;;;;;7.32;4.50;;;24.00;71.80;;;;;;5116712;28;20027;-75
2021/06/18 03:41:21;;;;;;;8.23;5.30;;;24.10;71.80;;;;;;5098666;28;20111;-75
2021/06/18 03:43:48;;;;;;;8.25;4.68;;;24.10;71.60;;;;;;5096858;28;20027;-75
2021/06/18 03:46:15;;;;;;;6.88;4.50;;;24.10;71.70;;;;;;5116596;28;20024;-75
2021/06/18 03:48:44;;;;;;;8.38;5.03;;;24.10;71.90;;;;;;5104544;28;20031;-75
2021/06/18 03:51:10;;;;;;;;;;;24.10;72.00;;;;;;5099277;28;20388;-76
2021/06/18 03:53:37;;;;;;;9.88;5.15;;;24.10;71.80;;;;;;5116229;28;19926;-75
2021/06/18 03:56:04;;;;;;;10.90;6.45;;;24.00;72.30;;;;;;5116420;28;20379;-75
2021/06/18 03:58:31;;;;;;;12.23;6.80;;;24.00;72.30;;;;;;5098472;28;20026;-75
2021/06/18 04:00:58;;;;;;;9.80;6.97;;;24.00;72.50;;;;;;5097122;28;20028;-75
2021/06/18 04:03:26;;;;;;;12.07;7.93;;;24.00;72.70;;;;;;5098635;28;20036;-75
2021/06/18 04:05:56;;;;;;;15.75;8.80;;;24.10;72.90;;;;;;5112463;28;20032;-74
2021/06/18 04:08:23;;;;;;;16.02;9.25;;;24.10;72.90;;;;;;5116378;28;20487;-75
2021/06/18 04:10:49;;;;;;;15.35;9.18;;;24.10;73.10;;;;;;5075396;28;20044;-75
2021/06/18 04:13:15;;;;;;;15.70;9.10;;;24.00;73.20;;;;;;5097128;28;20032;-75
2021/06/18 04:15:41;;;;;;;12.60;9.93;;;24.00;73.20;;;;;;5106725;28;20389;-74
2021/06/18 04:18:07;;;;;;;14.25;9.82;;;24.10;73.00;;;;;;5087454;28;20106;-74
2021/06/18 04:20:34;;;;;;;16.23;8.95;;;24.00;73.20;;;;;;5116033;28;20027;-74
2021/06/18 04:23:00;;;;;;;12.30;8.35;;;24.00;73.40;;;;;;5115923;28;20047;-74
2021/06/18 04:25:26;;;;;;;14.55;8.63;;;24.00;73.60;;;;;;5114588;28;20078;-74
2021/06/18 04:27:53;;;;;;;10.00;8.10;;;24.20;73.50;;;;;;5115711;28;20450;-74
2021/06/18 04:30:18;;;;;;;17.08;8.73;;;24.20;73.20;;;;;;5115604;28;20048;-75
2021/06/18 04:32:44;;;;;;;12.13;8.70;;;24.30;72.90;;;;;;5079758;28;20104;-75
2021/06/18 04:35:11;;;;;;;13.73;8.90;;;24.40;72.50;;;;;;5104711;28;20027;-75
2021/06/18 04:37:38;;;;;;;12.80;9.63;;;24.40;72.10;;;;;;5115793;28;20020;-74
2021/06/18 04:40:05;;;;;;;15.35;8.88;;;24.40;72.00;;;;;;5108471;28;20023;-75
2021/06/18 04:42:31;;;;;;;11.63;7.70;;;24.50;71.90;;;;;;5115773;28;20503;-75
2021/06/18 04:44:56;;;;;;;12.52;8.27;;;24.50;71.80;;;;;;5097024;28;20274;-75
2021/06/18 04:47:23;;;;;;;12.02;8.80;;;24.50;71.90;;;;;;5097556;28;20031;-75
2021/06/18 04:49:49;;;;;;;15.57;8.75;;;24.60;71.90;;;;;;5115465;28;20421;-74
2021/06/18 04:52:16;;;;;;;14.30;8.23;;;24.60;71.40;;;;;;5115171;28;20036;-75
2021/06/18 04:54:42;;;;;;;18.50;9.43;;;24.60;71.10;;;;;;5086975;28;20030;-75
2021/06/18 04:57:08;;;;;;;12.77;8.98;;;24.60;71.00;;;;;;5097366;28;20369;-75
2021/06/18 04:59:37;;;;;;;16.08;8.88;;;24.60;71.00;;;;;;5114996;28;20144;-75
2021/06/18 05:02:03;;;;;;;;;;;24.60;70.90;;;;;;5109386;28;20026;-75
2021/06/18 05:04:29;;;;;;;13.20;9.55;;;24.60;70.70;;;;;;5084123;28;19920;-76
2021/06/18 05:06:54;;;;;;;12.63;9.48;;;24.60;71.30;;;;;;5114173;28;20023;-75
2021/06/18 05:09:20;;;;;;;12.20;8.93;;;24.60;71.40;;;;;;5087013;28;20040;-77
2021/06/18 05:11:45;;;;;;;16.88;9.55;;;24.60;71.10;;;;;;5087155;28;20036;-76
2021/06/18 05:14:11;;;;;;;14.30;8.98;;;24.60;70.90;;;;;;5098572;28;20480;-76
2021/06/18 05:16:39;;;;;;;12.45;8.73;;;24.60;71.00;;;;;;5115607;28;20024;-75
2021/06/18 05:19:05;;;;;;;17.50;9.88;;;24.70;70.90;;;;;;5097608;28;20107;-75
2021/06/18 05:21:31;;;;;;;12.07;8.95;;;24.70;70.80;;;;;;5114762;28;20107;-76
2021/06/18 05:23:57;;;;;;;13.60;8.35;;;24.70;70.80;;;;;;5109611;28;20112;-76
2021/06/18 05:26:22;;;;;;;12.60;8.85;;;24.80;70.60;;;;;;5096543;28;20035;-80
2021/06/18 05:28:48;;;;;;;13.07;8.68;;;24.80;70.60;;;;;;5115452;28;20032;-80
2021/06/18 05:31:13;;;;;;;15.13;8.40;;;24.80;70.40;;;;;;5115136;28;20517;-80
2021/06/18 05:33:39;;;;;;;12.13;8.65;;;24.80;70.60;;;;;;5096689;28;20038;-80
2021/06/18 05:36:05;;;;;;;12.27;7.90;;;24.80;70.40;;;;;;5114965;28;20067;-80
2021/06/18 05:38:30;;;;;;;12.68;8.88;;;24.70;70.10;;;;;;5115110;28;20043;-80
2021/06/18 05:40:56;;;;;;;12.32;7.30;;;24.70;71.00;;;;;;5115296;28;20058;-81
2021/06/18 05:43:22;;;;;;;14.68;7.95;;;24.70;70.50;;;;;;5115040;28;20027;-81
2021/06/18 05:45:47;;;;;;;10.45;7.97;;;24.80;70.50;;;;;;5079533;28;20039;-82
2021/06/18 05:48:13;;;;;;;15.02;9.13;;;24.80;70.30;;;;;;5114743;28;20031;-81
2021/06/18 05:50:38;;;;;;;11.95;8.35;;;24.80;70.00;;;;;;5114852;28;20548;-82
2021/06/18 05:53:04;;;;;;;15.93;8.80;;;24.80;69.90;;;;;;5111542;28;20024;-82
2021/06/18 05:55:30;;;;;;;12.25;7.97;;;24.80;69.90;;;;;;5094642;28;20366;-81
2021/06/18 05:57:56;;;;;;;10.70;7.60;;;24.70;70.20;;;;;;5094330;28;20035;-81
2021/06/18 06:00:21;;;;;;;11.10;7.97;;;24.70;70.60;;;;;;5101668;28;20432;-81
2021/06/18 06:02:47;;;;;;;16.58;9.45;;;24.70;70.70;;;;;;5114553;28;20020;-81
2021/06/18 06:05:13;;;;;;;14.65;8.50;;;24.70;71.30;;;;;;5114602;28;20023;-82
2021/06/18 06:07:47;;;;;;;12.57;7.70;;;24.70;71.20;;;;;;5109342;28;20017;-82
2021/06/18 06:10:14;;;;;;;18.70;8.57;;;24.70;71.60;;;;;;5094074;28;20046;-82
2021/06/18 06:12:42;;;;;;;12.85;7.40;;;24.80;70.80;;;;;;5094318;28;20427;-82
2021/06/18 06:15:08;;;;;;;14.38;8.00;;;24.80;70.50;;;;;;5076148;28;20048;-82
2021/06/18 06:17:34;;;;;;;12.98;8.02;;;24.90;70.20;;;;;;5094440;28;20024;-82
2021/06/18 06:20:00;;;;;;;12.48;8.52;;;24.90;70.00;;;;;;5094150;28;20042;-82
2021/06/18 06:22:25;;;;;;;10.50;7.95;;;25.10;69.80;;;;;;5076176;28;20087;-81
2021/06/18 06:24:51;;;;;;;12.95;8.05;;;25.10;69.60;;;;;;5085950;28;20024;-82
2021/06/18 06:27:17;;;;;;;14.10;9.02;;;25.10;69.10;;;;;;5114547;28;20023;-82
2021/06/18 06:29:43;;;;;;;15.88;8.75;;;25.20;68.80;;;;;;5114274;28;20046;-82
2021/06/18 06:32:08;;;;;;;19.63;8.77;;;25.20;68.90;;;;;;5114205;28;20024;-82
2021/06/18 06:34:34;;;;;;;13.48;8.02;;;25.20;69.10;;;;;;5113509;28;20053;-81
2021/06/18 06:37:00;;;;;;;13.93;7.82;;;25.20;68.80;;;;;;5096217;28;20067;-81
2021/06/18 06:39:25;;;;;;;13.98;7.47;;;25.20;68.90;;;;;;5079286;28;20051;-82
2021/06/18 06:41:51;;;;;;;10.57;8.57;;;25.20;69.10;;;;;;5095955;28;20490;-81
2021/06/18 06:44:17;;;;;;;14.95;8.80;;;25.20;68.70;;;;;;5114007;28;20097;-82
2021/06/18 06:46:42;;;;;;;19.30;8.50;;;25.20;68.40;;;;;;5114206;28;20027;-82
2021/06/18 06:49:08;;;;;;;14.02;8.80;;;25.10;68.40;;;;;;5114156;28;20032;-83
2021/06/18 06:51:34;;;;;;;11.80;7.88;;;25.10;68.60;;;;;;5101744;28;20060;-82
2021/06/18 06:54:00;;;;;;;15.68;9.23;;;25.00;68.80;;;;;;5075331;28;20508;-83
2021/06/18 06:56:25;;;;;;;13.02;8.85;;;25.00;68.90;;;;;;5105340;28;20035;-81
2021/06/18 06:58:54;;;;;;;16.20;8.77;;;24.90;69.20;;;;;;5113897;28;20016;-82
2021/06/18 07:01:19;;;;;;;13.93;8.55;;;24.80;69.40;;;;;;5113849;28;20066;-82
2021/06/18 07:03:45;;;;;;;12.88;8.55;;;24.80;69.70;;;;;;5113605;28;20055;-82
2021/06/18 07:06:11;;;;;;;21.10;9.77;;;24.80;70.00;;;;;;5113933;28;20040;-82
2021/06/18 07:08:37;;;;;;;16.88;8.77;;;24.80;69.80;;;;;;5113877;28;20522;-82
2021/06/18 07:11:03;;;;;;;12.27;8.82;;;24.70;69.90;;;;;;5095732;28;20031;-82
2021/06/18 07:13:29;;;;;;;17.20;8.20;;;24.60;70.20;;;;;;5114015;28;20140;-82
2021/06/18 07:15:56;;;;;;;17.20;8.38;;;24.60;70.50;;;;;;5096024;28;20107;-83
2021/06/18 07:18:22;;;;;;;15.40;8.95;;;24.60;70.30;;;;;;5097803;28;20123;-82
2021/06/18 07:20:47;;;;;;;14.02;8.00;;;24.60;70.10;;;;;;5093585;28;20104;-82
2021/06/18 07:23:13;;;;;;;16.52;8.57;;;24.70;70.30;;;;;;5093614;28;20635;-82
2021/06/18 07:25:40;;;;;;;14.88;8.80;;;24.70;70.30;;;;;;5093371;28;20024;-83
2021/06/18 07:28:06;;;;;;;16.10;8.32;;;24.80;70.30;;;;;;5058716;28;20040;-82
2021/06/18 07:30:33;;;;;;;15.68;7.68;;;24.80;70.70;;;;;;5095706;28;20044;-82
2021/06/18 07:32:58;;;;;;;11.45;8.55;;;24.80;71.40;;;;;;5113623;28;20115;-82
2021/06/18 07:35:25;;;;;;;18.67;8.38;;;24.80;71.90;;;;;;5102966;28;20057;-82
2021/06/18 07:37:50;;;;;;;14.43;8.77;;;24.80;72.70;;;;;;5113434;28;20070;-82
2021/06/18 07:40:17;;;;;;;18.92;8.52;;;24.70;72.30;;;;;;5113059;28;20499;-82
2021/06/18 07:42:44;;;;;;;11.00;7.50;;;24.70;73.00;;;;;;5113263;28;20027;-82
2021/06/18 07:45:11;;;;;;;12.50;7.88;;;24.60;73.30;;;;;;5090420;28;20372;-82
2021/06/18 07:47:39;;;;;;;12.55;8.00;;;24.60;73.40;;;;;;5096842;28;20415;-83
2021/06/18 07:50:07;;;;;;;9.27;7.33;;;24.60;73.20;;;;;;5110652;28;20031;-83
2021/06/18 07:52:33;;;;;;;13.70;7.82;;;24.60;73.10;;;;;;5117491;28;20047;-82
2021/06/18 07:55:00;;;;;;;15.23;8.35;;;24.60;72.60;;;;;;5082006;28;20055;-84
2021/06/18 07:57:26;;;;;;;11.13;8.68;;;24.60;72.40;;;;;;5099036;28;20089;-87
2021/06/18 07:59:52;;;;;;;14.30;8.45;;;24.70;71.80;;;;;;5117363;28;20019;-83
2021/06/18 08:02:19;;;;;;;9.65;7.57;;;24.70;71.80;;;;;;5117070;28;20020;-84
2021/06/18 08:04:44;;;;;;;14.48;8.55;;;24.80;71.60;;;;;;5098527;28;20452;-84
2021/06/18 08:07:10;;;;;;;18.30;9.00;;;24.80;71.50;;;;;;5117045;28;20058;-83
2021/06/18 08:09:36;;;;;;;15.25;8.63;;;24.90;71.30;;;;;;5117287;28;20019;-82
2021/06/18 08:12:02;;;;;;;15.20;8.68;;;24.90;71.10;;;;;;5116863;28;20038;-82
2021/06/18 08:14:29;;;;;;;14.05;8.57;;;25.00;70.70;;;;;;5098831;28;20023;-82
2021/06/18 08:16:54;;;;;;;18.00;8.27;;;25.10;70.50;;;;;;5086071;28;20028;-82
2021/06/18 08:19:20;;;;;;;19.15;9.05;;;25.30;70.60;;;;;;5078150;28;20393;-83
2021/06/18 08:21:46;;;;;;;19.23;9.07;;;25.50;69.80;;;;;;5097028;28;20049;-82
2021/06/18 08:24:12;;;;;;;15.35;9.70;;;25.70;69.00;;;;;;5078282;28;20034;-83
2021/06/18 08:26:37;;;;;;;24.02;11.23;;;25.90;68.60;;;;;;5095914;28;20396;-83
2021/06/18 08:29:03;;;;;;;22.42;12.25;;;26.00;68.50;;;;;;5077774;28;20039;-82
2021/06/18 08:31:29;;;;;;;16.35;10.88;;;26.00;68.20;;;;;;5095854;28;20517;-82
2021/06/18 08:33:56;;;;;;;19.10;12.07;;;26.10;68.20;;;;;;5096415;28;20419;-83
2021/06/18 08:36:23;;;;;;;15.52;11.57;;;26.10;68.10;;;;;;5095793;28;20035;-82
2021/06/18 08:38:49;;;;;;;20.52;11.27;;;26.10;68.50;;;;;;5095830;28;20034;-83
2021/06/18 08:41:15;;;;;;;17.23;11.55;;;26.10;68.60;;;;;;5077849;28;20032;-83
2021/06/18 08:43:41;;;;;;;15.35;9.77;;;26.20;68.20;;;;;;5077863;28;20084;-83
2021/06/18 08:46:06;;;;;;;13.77;9.45;;;26.40;68.10;;;;;;5077769;28;20389;-83
2021/06/18 08:48:33;;;;;;;14.07;9.70;;;26.70;67.60;;;;;;5095627;28;20072;-83
2021/06/18 08:51:01;;;;;;;13.95;9.82;;;27.00;66.80;;;;;;5095764;28;20032;-82
2021/06/18 08:53:29;;;;;;;12.50;8.13;;;27.40;66.30;;;;;;5097675;28;20027;-82
2021/06/18 08:55:57;;;;;;;15.03;9.20;;;27.60;65.50;;;;;;5115616;28;20024;-83
2021/06/18 08:58:23;;;;;;;;;;;27.80;64.70;;;;;;5080545;28;20390;-83
2021/06/18 09:00:51;;;;;;;15.52;9.60;;;27.90;64.10;;;;;;5115130;28;19983;-83
2021/06/18 09:03:37;;;;;;;17.52;9.88;;;28.00;64.20;;;;;;5107202;28;20031;-82
2021/06/18 09:06:28;;;;;;;19.17;10.65;;;28.10;63.70;;;;;;5101818;28;20024;-83
2021/06/18 09:09:12;;;;;;;12.75;8.50;;;28.10;63.80;;;;;;5093047;28;20020;-78
2021/06/18 09:12:00;;;;;;;11.68;8.82;;;28.30;63.80;;;;;;5077243;28;20028;-78
2021/06/18 09:14:33;;;;;;;12.18;8.27;;;28.40;63.10;;;;;;5102050;28;20036;-79
2021/06/18 09:17:08;;;;;;;15.60;9.13;;;28.60;62.60;;;;;;5095241;28;20537;-79
2021/06/18 09:19:36;;;;;;;16.42;9.38;;;28.80;62.10;;;;;;5104630;28;20414;-79
2021/06/18 09:22:08;;;;;;;11.75;8.63;;;28.90;61.70;;;;;;5097199;28;20476;-79
2021/06/18 09:24:37;;;;;;;11.07;8.77;;;28.90;61.50;;;;;;5095145;28;20392;-79
2021/06/18 09:27:03;;;;;;;14.35;8.65;;;29.10;61.40;;;;;;5093723;28;20035;-79
2021/06/18 09:29:30;;;;;;;13.95;8.48;;;29.30;61.40;;;;;;5076670;28;20059;-79
2021/06/18 09:32:00;;;;;;;17.05;8.88;;;29.40;61.10;;;;;;5095281;28;20506;-79
2021/06/18 09:35:00;;;;;;;14.00;9.10;;;29.50;60.80;;;;;;5113676;28;20484;-79
2021/06/18 09:37:39;;;;;;;13.95;9.27;;;29.60;59.60;;;;;;5096162;28;20388;-79
2021/06/18 09:40:10;;;;;;;16.90;9.38;;;29.70;59.60;;;;;;5094941;28;20012;-79
2021/06/18 09:42:49;;;;;;;14.48;8.23;;;29.80;59.50;;;;;;5097382;28;20530;-79
2021/06/18 09:45:21;;;;;;;17.30;7.57;;;29.90;59.00;;;;;;5115133;28;20468;-79
2021/06/18 09:47:48;;;;;;;16.77;8.43;;;30.10;58.90;;;;;;5113067;28;20030;-80
2021/06/18 09:50:14;;;;;;;14.65;7.57;;;30.20;58.30;;;;;;5094685;28;20032;-79
2021/06/18 09:52:40;;;;;;;16.83;8.20;;;30.20;58.00;;;;;;5095407;28;20021;-79
2021/06/18 09:55:06;;;;;;;18.70;7.97;;;30.20;58.00;;;;;;5094505;28;20032;-79
2021/06/18 09:57:39;;;;;;;13.40;7.63;;;30.20;57.20;;;;;;5094336;28;20084;-79
2021/06/18 10:00:09;;;;;;;11.55;6.28;;;30.30;57.20;;;;;;5076041;28;20388;-79
2021/06/18 10:02:42;;;;;;;9.60;6.05;;;30.50;57.60;;;;;;5101822;28;20024;-78
2021/06/18 10:05:14;;;;;;;10.10;5.55;;;30.70;56.10;;;;;;5094529;28;20024;-78
2021/06/18 10:07:40;;;;;;;9.27;4.90;;;30.80;54.90;;;;;;5098125;28;20020;-78
2021/06/18 10:10:09;;;;;;;11.00;4.95;;;30.90;54.30;;;;;;5114086;28;20048;-78
2021/06/18 10:12:35;;;;;;;14.95;5.53;;;31.00;54.50;;;;;;5114263;28;20499;-78
2021/06/18 10:15:06;;;;;;;15.15;4.57;;;31.10;54.40;;;;;;5098090;28;20032;-78
2021/06/18 10:17:32;;;;;;;11.60;4.88;;;31.20;53.90;;;;;;5097747;28;20024;-77
2021/06/18 10:19:58;;;;;;;15.32;5.65;;;31.40;51.90;;;;;;5085819;28;20341;-78
2021/06/18 10:22:27;;;;;;;11.45;5.32;;;31.40;52.00;;;;;;5096071;28;20027;-78
2021/06/18 10:24:55;;;;;;;;;;;31.40;52.30;;;;;;5105684;28;20051;-77
2021/06/18 10:27:31;;;;;;;11.52;5.53;;;31.50;52.90;;;;;;5093864;28;19939;-77
2021/06/18 10:29:58;;;;;;;8.13;4.53;;;31.60;53.20;;;;;;5072988;28;20048;-77
2021/06/18 10:32:31;;;;;;;14.02;4.80;;;31.70;53.20;;;;;;5076675;28;20116;-78
2021/06/18 10:34:59;;;;;;;11.25;3.60;;;31.70;52.10;;;;;;5093651;28;20072;-78
2021/06/18 10:37:27;;;;;;;9.38;3.70;;;31.70;50.80;;;;;;5083865;28;20029;-78
2021/06/18 10:39:55;;;;;;;11.95;3.72;;;31.70;49.30;;;;;;5088557;28;20035;-74
2021/06/18 10:42:22;;;;;;;7.90;3.40;;;31.80;48.30;;;;;;5091991;28;20472;-75
2021/06/18 10:44:52;;;;;;;13.93;5.13;;;32.00;49.10;;;;;;5082160;28;20032;-75
2021/06/18 10:47:24;;;;;;;12.68;4.75;;;32.10;49.60;;;;;;5086037;28;20399;-75
2021/06/18 10:49:51;;;;;;;9.77;3.60;;;32.10;50.40;;;;;;5080559;28;20024;-75
2021/06/18 10:52:19;;;;;;;9.32;3.65;;;32.10;49.40;;;;;;5074367;28;20052;-75
2021/06/18 10:54:51;;;;;;;7.65;3.22;;;32.10;49.20;;;;;;5081733;28;20032;-75
2021/06/18 10:57:22;;;;;;;12.10;3.67;;;32.20;48.80;;;;;;5072622;28;20035;-75
2021/06/18 10:59:49;;;;;;;14.15;3.63;;;32.30;47.20;;;;;;5080155;28;20060;-75
2021/06/18 11:02:35;;;;;;;10.85;4.20;;;32.40;46.80;;;;;;5088205;28;20031;-75
2021/06/18 11:05:32;;;;;;;12.52;3.90;;;32.50;47.90;;;;;;5083570;28;20028;-74
2021/06/18 11:08:16;;;;;;;12.93;3.28;;;32.50;47.80;;;;;;5090014;28;20427;-75
2021/06/18 11:10:41;;;;;;;10.95;2.95;;;32.70;47.10;;;;;;5091317;28;20040;-75
2021/06/18 11:13:09;;;;;;;6.82;3.20;;;32.60;45.60;;;;;;5090630;28;20036;-75
2021/06/18 11:15:37;;;;;;;;;;;32.70;45.90;;;;;;5085382;28;20119;-75
2021/06/18 11:18:11;;;;;;;4.90;3.22;;;32.80;46.50;;;;;;5087564;28;19915;-75
2021/06/18 11:20:37;;;;;;;10.52;3.53;;;32.90;46.00;;;;;;5084514;28;20036;-75
2021/06/18 11:23:16;;;;;;;11.25;3.50;;;32.90;46.30;;;;;;5079998;28;20050;-75
2021/06/18 11:25:48;;;;;;;11.95;3.50;;;33.00;46.40;;;;;;5096601;28;20023;-75
2021/06/18 11:28:20;;;;;;;15.57;3.83;;;33.10;45.50;;;;;;5090646;28;20029;-75
2021/06/18 11:30:59;;;;;;;11.57;4.07;;;33.20;45.70;;;;;;5097990;28;20420;-75
2021/06/18 11:33:44;;;;;;;13.13;3.40;;;33.30;45.10;;;;;;5105385;28;20411;-75
2021/06/18 11:36:22;;;;;;;9.70;3.40;;;33.30;45.40;;;;;;5102873;28;20048;-75
2021/06/18 11:38:49;;;;;;;;;;;33.30;45.80;;;;;;5116924;28;20484;-75
2021/06/18 11:41:20;;;;;;;6.95;3.20;;;33.30;46.40;;;;;;5112171;28;19907;-75
2021/06/18 11:43:53;;;;;;;11.88;3.78;;;33.40;45.10;;;;;;5090144;28;20457;-75
2021/06/18 11:46:23;;;;;;;9.68;3.72;;;33.50;45.70;;;;;;5109782;28;20024;-75
2021/06/18 11:48:49;;;;;;;10.75;3.70;;;33.50;46.10;;;;;;5096124;28;20470;-75
2021/06/18 11:51:21;;;;;;;7.88;3.45;;;33.60;46.20;;;;;;5096050;28;20058;-75
2021/06/18 11:53:47;;;;;;;8.93;3.90;;;33.70;45.70;;;;;;5094638;28;20024;-75
2021/06/18 11:56:13;;;;;;;13.63;3.80;;;33.70;45.60;;;;;;5096962;28;20381;-75
2021/06/18 11:58:41;;;;;;;15.77;4.00;;;33.80;46.00;;;;;;5097905;28;20038;-74
2021/06/18 12:01:24;;;;;;;8.13;3.63;;;33.90;46.40;;;;;;5116276;28;20016;-74
2021/06/18 12:03:56;;;;;;;8.45;3.60;;;34.00;46.20;;;;;;5095696;28;20388;-75
2021/06/18 12:06:35;;;;;;;7.32;3.42;;;34.00;46.00;;;;;;5094627;28;20064;-74
2021/06/18 12:09:12;;;;;;;10.65;3.20;;;34.10;45.50;;;;;;5115792;28;20023;-75
2021/06/18 12:11:42;;;;;;;7.35;2.90;;;34.20;44.90;;;;;;5078703;28;20063;-75
2021/06/18 12:14:10;;;;;;;8.50;2.90;;;34.30;43.70;;;;;;5097046;28;20043;-75
2021/06/18 12:16:44;;;;;;;7.20;3.00;;;34.40;41.60;;;;;;5115368;28;20034;-75
2021/06/18 12:19:23;;;;;;;9.50;3.00;;;34.40;42.00;;;;;;5097377;28;20123;-74
2021/06/18 12:22:18;;;;;;;6.43;2.60;;;34.50;42.80;;;;;;5131285;27;20072;-74
2021/06/18 12:24:49;;;;;;;8.30;3.42;;;34.60;42.60;;;;;;5115251;28;20118;-74
2021/06/18 12:27:26;;;;;;;6.95;3.70;;;34.70;43.70;;;;;;5096131;28;20039;-74
2021/06/18 12:29:57;;;;;;;10.10;3.70;;;34.70;43.90;;;;;;5078186;28;20048;-75
2021/06/18 12:32:31;;;;;;;9.85;3.30;;;34.70;44.10;;;;;;5088665;28;20028;-75
2021/06/18 12:35:01;;;;;;;9.82;3.40;;;34.90;43.70;;;;;;5098748;28;20371;-78
2021/06/18 12:37:30;;;;;;;8.60;2.95;;;34.90;42.30;;;;;;5096134;28;20027;-77
2021/06/18 12:40:00;;;;;;;6.38;3.15;;;35.10;42.10;;;;;;5095233;28;20034;-77
2021/06/18 12:42:27;;;;;;;10.95;3.05;;;35.10;41.90;;;;;;5078271;28;20028;-76
2021/06/18 12:45:16;;;;;;;7.15;2.85;;;35.10;41.50;;;;;;5079924;28;20472;-75
2021/06/18 12:47:47;;;;;;;8.80;3.20;;;35.00;41.70;;;;;;5105726;28;20034;-76
2021/06/18 12:50:33;;;;;;;11.48;2.90;;;35.00;41.90;;;;;;5115264;28;20468;-76